Flight Track Log - Related Links

Times and Time Zones

All times are in EDT time to prevent confusion due to time zone crossing. See the UAL619 flight status page for this flight to view local times or setup timezone preferences in your user account.

Time Position Orientation Groundspeed Altitude Reporting Facility
EDT Latitude Longitude Course Direction KTS MPH feet Rate Location/Type
Thu 12:00:37 AM 37.6247 -122.3903 136° Southeast 138 159 33,000  Level Oakland Center
Thu 12:01:21 AM 37.6500 -122.4333 307° West 166 191 3,100 -15,635 Descending Northern TRACON
Thu 12:02:21 AM 37.6667 -122.5000 288° West 226 260 5,900 2,700 Climbing Northern TRACON
Thu 12:03:21 AM 37.6000 -122.5000 180° South 267 307 8,500 2,354 Climbing Northern TRACON
Thu 12:03:40 AM 37.5783 -122.4808 145° Southeast 272 313 9,000 2,400 Climbing Oakland Center
Thu 12:04:00 AM 37.4132 -122.3115 130° Southeast  Level FlightAware
Thu 12:04:41 AM 37.5006 -122.4286 152° Southeast 312 359 11,700  Level Oakland Center
Thu 12:05:00 AM 37.3386 -122.2129 136° Southeast  Level FlightAware
Thu 12:05:42 AM 37.4614 -122.3186 114° Southeast 355 409 14,000  Level Oakland Center
Thu 12:06:43 AM 37.4272 -122.1831 108° East 404 465 15,600 1,869 Climbing Oakland Center
Thu 12:07:44 AM 37.3964 -122.0411 105° East 422 486 17,800 1,918 Climbing Oakland Center
Thu 12:08:45 AM 37.3633 -121.8914 105° East 441 507 19,500 1,918 Climbing Oakland Center
Thu 12:09:46 AM 37.3311 -121.7433 105° East 457 526 21,700 1,770 Climbing Oakland Center
Thu 12:10:47 AM 37.2961 -121.5869 106° East 466 536 23,100 1,475 Climbing Oakland Center
Thu 12:11:48 AM 37.2519 -121.3928 106° East 481 554 24,700 1,377 Climbing Oakland Center
Thu 12:12:49 AM 37.2142 -121.2250 106° East 497 572 25,900 1,230 Climbing Oakland Center
Thu 12:13:50 AM 37.1756 -121.0542 106° East 508 585 27,200 1,377 Climbing Oakland Center
Thu 12:14:51 AM 37.1361 -120.8828 106° East 513 590 28,700 1,426 Climbing Oakland Center
Thu 12:15:52 AM 37.0961 -120.7108 106° East 521 600 30,100 1,426 Climbing Oakland Center
Thu 12:16:53 AM 37.0589 -120.5406 105° East 529 609 31,600 1,426 Climbing Oakland Center
Thu 12:17:54 AM 37.0183 -120.3778 107° East 501 577 33,000 689 Climbing Oakland Center
Thu 12:18:55 AM 36.9800 -120.2150 106° East 490 564 33,000  Level Oakland Center
Thu 12:19:56 AM 36.9400 -120.0522 107° East 496 571 33,000  Level Oakland Center
Thu 12:20:57 AM 36.9083 -119.8831 103° East 503 579 33,000  Level Oakland Center
Thu 12:21:58 AM 36.9222 -119.7122 84° East 502 578 33,000  Level Oakland Center
Thu 12:22:59 AM 36.9758 -119.5544 67° East 495 570 33,000 -49 Level Oakland Center
Thu 12:24:00 AM 37.0408 -119.3664 67° East 489 563 32,900 -49 Descending Oakland Center
Thu 12:25:01 AM 37.0950 -119.2111 66° East 488 562 32,900  Level Oakland Center
Thu 12:26:02 AM 37.1475 -119.0539 67° East 488 562 32,900 49 Level Oakland Center
Thu 12:27:03 AM 37.2011 -118.8981 67° East 486 559 33,000 50 Climbing Oakland Center
Thu 12:28:03 AM 37.2522 -118.7403 68° East 486 559 33,000  Level Oakland Center
Thu 12:29:04 AM 37.3031 -118.5819 68° East 487 560 33,000  Level Oakland Center
Thu 12:30:05 AM 37.3572 -118.4181 67° East 488 562 33,000  Level Oakland Center
Thu 12:31:06 AM 37.3700 -118.2439 85° East 496 571 33,000  Level Oakland Center
Thu 12:32:07 AM 37.3814 -118.0697 85° East 500 575 33,000  Level Oakland Center
Thu 12:33:08 AM 37.3925 -117.8967 85° East 500 575 33,000  Level Oakland Center
Thu 12:34:09 AM 37.4036 -117.7242 85° East 498 573 33,000  Level Oakland Center
Thu 12:35:10 AM 37.4142 -117.5528 86° East 495 570 33,000  Level Oakland Center
Thu 12:36:11 AM 37.4169 -117.3800 89° East 498 573 33,000  Level Oakland Center
Thu 12:37:12 AM 37.3567 -117.2294 117° Southeast 496 571 33,000  Level Oakland Center
Thu 12:38:13 AM 37.2289 -117.1067 143° Southeast 489 563 33,000  Level Oakland Center
Thu 12:38:32 AM 37.2083 -117.0900 147° Southeast 478 550 33,000 -787 Level Los Center
Thu 12:39:14 AM 37.1211 -117.0172 146° Southeast 467 537 32,200 -1,689 Descending Oakland Center
Thu 12:40:15 AM 37.0136 -116.9253 146° Southeast 467 537 30,100 -2,164 Descending Oakland Center
Thu 12:41:16 AM 36.9086 -116.8381 146° Southeast 457 526 27,800 -2,100 Descending Oakland Center
Thu 12:41:35 AM 36.8881 -116.8200 145° Southeast 457 526 27,300 -1,926 Descending Los Center
Thu 12:42:37 AM 36.7889 -116.7314 144° Southeast 445 512 25,200 -1,902 Descending Los Center
Thu 12:43:38 AM 36.6944 -116.5947 131° Southeast 435 501 23,400 -1,377 Descending Los Center
Thu 12:44:39 AM 36.6183 -116.4850 131° Southeast 423 487 22,400 -934 Descending Los Center
Thu 12:45:40 AM 36.5436 -116.3814 132° Southeast 410 472 21,500 -689 Descending Los Center
Thu 12:46:41 AM 36.4850 -116.2961 131° Southeast 406 467 21,000 -590 Descending Los Center
Thu 12:47:42 AM 36.3986 -116.1794 133° Southeast 402 463 20,300 -1,187 Descending Los Center
Thu 12:48:12 AM 36.3511 -116.1172 133° Southeast 410 472 19,200 -2,032 Descending Los Center
Thu 12:48:44 AM 36.3158 -116.0600 127° Southeast 397 457 18,200 -2,073 Descending Los Center
Thu 12:49:07 AM 36.2864 -116.0233 135° Southeast 396 456 17,300 -1,770 Descending Los Center
Thu 12:49:45 AM 36.2461 -115.9614 129° Southeast 384 442 16,400 -1,075 Descending Los Center
Thu 12:50:14 AM 36.2133 -115.9217 136° Southeast 370 426 16,100 -787 Descending Los Center
Thu 12:50:46 AM 36.1878 -115.8586 117° Southeast 343 395 15,600 -1,000 Descending Los Center
Thu 12:51:08 AM 36.1725 -115.8203 116° Southeast 336 387 15,200 -1,065 Descending Los Center
Thu 12:51:48 AM 36.1531 -115.7506 109° East 339 390 14,500 -985 Descending Los Center
Thu 12:52:15 AM 36.1347 -115.7022 115° Southeast 334 384 14,100 -885 Descending Los Center
Thu 12:52:49 AM 36.1186 -115.6458 109° East 330 380 13,600 -982 Descending Los Center
Thu 12:53:10 AM 36.1058 -115.6078 113° Southeast 330 380 13,200 -984 Descending Los Center
Thu 12:53:50 AM 36.0872 -115.5486 111° Southeast 327 376 12,600 -984 Descending Los Center
Thu 12:54:11 AM 36.0706 -115.5025 114° Southeast 321 369 12,200 -885 Descending Los Center
Thu 12:54:51 AM 36.0547 -115.4506 111° Southeast 316 364 11,700 -900 Descending Los Center
Thu 12:55:11 AM 36.0417 -115.4081 111° Southeast 294 338 11,300 -740 Descending Los Center
Thu 12:56:04 AM 36.0281 -115.3583 109° East 298 343 10,800 -1,096 Descending Los Center
Thu 12:57:06 AM 36.0197 -115.2250 94° East 281 323 9,200 -1,220 Descending Los Center
Thu 12:58:07 AM 36.0136 -115.1311 95° East 278 320 8,300 -1,082 Descending Los Center
Thu 12:59:08 AM 36.0058 -115.0442 96° East 264 304 7,000 -1,328 Descending Los Center
Thu 01:00:09 AM 36.0064 -114.9650 89° East 245 282 5,600 -1,268 Descending Los Center
Thu 01:01:11 AM 36.0492 -114.9744 350° North 205 236 4,400 -1,041 Descending Los Center
Thu 01:02:10 AM 36.0711 -115.0261 298° West 146 168 3,500 -738 Descending Los Center
Thu 01:03:13 AM 36.0753 -115.0686 277° West 154 177 2,900 -629 Descending Los Center
Thu 01:04:14 AM 36.0733 -115.1164 267° West 145 167 2,200 -689 Descending Los Center

Login

Don't have an account? Register now (free) for customized features, flight alerts, and more!